^^
Station Historical Data
Daily Summary for January 11, 2018 Units:  English    Metric   Both
« Previous Day
Next Day »
Daily Weekly Monthly Yearly Custom
  High: Low: Average:
Temperature: TemperatureF °F 63.0 °F 69.9 °F
Dew Point: DewpointF °F 61.9 °F 64.6 °F
Humidity: Humidity% 54% 85%
Wind Speed: WindSpeedMPHmph 0.0mph 0mph
Wind Gust: WindSpeedGustMPHmph - -
Wind- - North
Pressure: PressureIn in 29.97 in -
Precipitation: 0.04 in    
Historical Graphs
 
 
Tabular Data for January 11, 2018
Time Temperature Dew Point Pressure Wind Wind Speed Wind Gust Humidity Rainfall Rate (Hourly) solar Conditions
TemperatureF °F DewpointF °F PressureIn in Calm     Humidity% HourlyPrecipIn in SolarRadiationWatts/m^2 W/m2 Conditions
00:00 66.0 °F 66.0 °F 30.05 in Calm     100% 0.00 in 0.0 W/m2 RA
00:10 66.9 °F 65.7 °F 30.03 in Calm     96% 0.00 in 0.0 W/m2 OVC
00:15 66.9 °F 65.7 °F 30.03 in Calm     96% 0.00 in 0.0 W/m2 OVC
00:20 66.9 °F 65.7 °F 30.03 in Calm     96% 0.00 in 0.0 W/m2 OVC
00:30 66.9 °F 65.7 °F 30.03 in Calm     96% 0.00 in 0.0 W/m2 OVC
00:40 66.9 °F 65.7 °F 30.03 in Calm     96% 0.00 in 0.0 W/m2 OVC
00:45 66.9 °F 65.7 °F 30.03 in Calm     96% 0.00 in 0.0 W/m2 OVC
01:00 66.9 °F 65.7 °F 30.03 in Calm     96% 0.00 in 0.0 W/m2 OVC
01:10 66.9 °F 65.7 °F 30.03 in Calm     96% 0.00 in 0.0 W/m2 BKN
01:25 66.9 °F 65.7 °F 30.03 in Calm     96% 0.00 in 0.0 W/m2 OVC
01:30 66.9 °F 65.7 °F 30.03 in Calm     96% 0.00 in 0.0 W/m2 OVC
01:40 66.2 °F 66.2 °F 30.02 in Calm     100% 0.00 in 0.0 W/m2 OVC
01:45 66.2 °F 66.2 °F 30.02 in Calm     100% 0.00 in 0.0 W/m2 OVC
01:55 66.2 °F 66.2 °F 30.02 in Calm     100% 0.00 in 0.0 W/m2 OVC
02:00 66.2 °F 66.2 °F 30.02 in Calm     100% 0.00 in 0.0 W/m2 OVC
02:10 66.9 °F 66.9 °F 30.01 in Calm     100% 0.00 in 0.0 W/m2 BKN
02:15 66.9 °F 66.9 °F 30.01 in Calm     100% 0.00 in 0.0 W/m2 BKN
02:25 66.9 °F 66.9 °F 30.01 in Calm     100% 0.00 in 0.0 W/m2 BKN
02:30 66.9 °F 66.9 °F 30.01 in Calm     100% 0.00 in 0.0 W/m2 BKN
02:40 66.9 °F 66.9 °F 30.01 in Calm     100% 0.00 in 0.0 W/m2 -RA
02:45 66.9 °F 66.9 °F 30.01 in Calm     100% 0.00 in 0.0 W/m2 -RA
02:55 66.9 °F 66.9 °F 30.01 in Calm     100% 0.00 in 0.0 W/m2 BKN
03:00 66.9 °F 66.9 °F 30.01 in Calm     100% 0.00 in 0.0 W/m2 BKN
03:10 64.9 °F 64.9 °F 30.00 in Calm     100% 0.00 in 0.0 W/m2 BKN
03:15 64.9 °F 64.9 °F 30.00 in Calm     100% 0.00 in 0.0 W/m2 BKN
03:25 64.9 °F 64.9 °F 30.00 in Calm     100% 0.00 in 0.0 W/m2 FEW
03:30 64.9 °F 64.9 °F 30.00 in Calm     100% 0.00 in 0.0 W/m2 FEW
03:40 64.9 °F 64.9 °F 30.00 in Calm     100% 0.00 in 0.0 W/m2 FEW
03:45 64.9 °F 64.9 °F 30.00 in Calm     100% 0.00 in 0.0 W/m2 FEW
03:55 64.9 °F 64.9 °F 30.00 in Calm     100% 0.00 in 0.0 W/m2 BKN
04:05 63.0 °F 63.0 °F 30.00 in Calm     100% 0.00 in 0.0 W/m2 BKN
04:10 63.0 °F 63.0 °F 30.00 in Calm     100% 0.00 in 0.0 W/m2 BKN
04:15 63.0 °F 63.0 °F 30.00 in Calm     100% 0.00 in 0.0 W/m2 BKN
04:25 63.0 °F 63.0 °F 30.00 in Calm     100% 0.00 in 0.0 W/m2 BKN
04:30 63.0 °F 63.0 °F 30.00 in Calm     100% 0.00 in 0.0 W/m2 BKN
04:40 63.0 °F 63.0 °F 30.00 in Calm     100% 0.00 in 0.0 W/m2 BKN
04:45 63.0 °F 63.0 °F 30.00 in Calm     100% 0.00 in 0.0 W/m2 BKN
05:00 63.0 °F 63.0 °F 29.99 in Calm     100% 0.00 in 0.0 W/m2 BKN
05:10 64.0 °F 64.0 °F 29.99 in Calm     100% 0.00 in 0.0 W/m2 BKN
05:15 64.0 °F 64.0 °F 29.99 in Calm     100% 0.00 in 0.0 W/m2 BKN
05:25 64.0 °F 64.0 °F 29.99 in Calm     100% 0.00 in 0.0 W/m2 OVC
05:30 64.0 °F 64.0 °F 29.99 in Calm     100% 0.00 in 0.0 W/m2 OVC
05:40 64.0 °F 64.0 °F 30.00 in Calm     100% 0.00 in 0.0 W/m2 OVC
05:45 64.0 °F 64.0 °F 30.00 in Calm     100% 0.00 in 0.0 W/m2 OVC
05:55 64.0 °F 64.0 °F 30.00 in Calm     100% 0.00 in 0.0 W/m2
06:10 64.9 °F 64.9 °F 30.00 in Calm     100% 0.00 in 0.0 W/m2 OVC
06:20 64.9 °F 64.9 °F 30.00 in Calm     100% 0.00 in 0.0 W/m2 SCT
06:30 64.9 °F 64.9 °F 30.00 in Calm     100% 0.00 in 0.0 W/m2 SCT
06:45 64.9 °F 64.9 °F 30.00 in Calm     100% 0.00 in 0.0 W/m2 BKN
06:55 64.9 °F 64.9 °F 30.00 in Calm     100% 0.00 in 0.0 W/m2 BKN
07:00 64.9 °F 64.9 °F 30.00 in Calm     100% 0.00 in 0.0 W/m2 BKN
07:10 64.0 °F 64.0 °F 30.01 in Calm     100% 0.00 in 0.0 W/m2 -RA
07:15 64.0 °F 64.0 °F 30.01 in Calm     100% 0.00 in 0.0 W/m2 -RA
07:25 64.0 °F 64.0 °F 30.01 in Calm     100% 0.00 in 0.0 W/m2 -RA
07:30 64.0 °F 64.0 °F 30.01 in Calm     100% 0.00 in 0.0 W/m2 -RA
07:40 64.0 °F 64.0 °F 30.01 in Calm     100% 0.00 in 0.0 W/m2 -RA
07:45 64.0 °F 64.0 °F 30.01 in Calm     100% 0.00 in 0.0 W/m2 -RA
07:55 64.0 °F 64.0 °F 30.01 in Calm     100% 0.00 in 0.0 W/m2 -RA
08:00 64.0 °F 64.0 °F 30.01 in Calm     100% 0.00 in 0.0 W/m2 -RA
08:10 64.9 °F 64.9 °F 30.02 in Calm     100% 0.00 in 0.0 W/m2 RA
08:15 64.9 °F 64.9 °F 30.02 in Calm     100% 0.00 in 0.0 W/m2 OVC
08:25 64.9 °F 64.9 °F 30.02 in Calm     100% 0.00 in 0.0 W/m2 OVC
08:30 64.9 °F 64.9 °F 30.02 in Calm     100% 0.00 in 0.0 W/m2 OVC
08:40 64.9 °F 64.9 °F 30.02 in Calm     100% 0.00 in 0.0 W/m2 OVC
08:45 64.9 °F 64.9 °F 30.02 in Calm     100% 0.00 in 0.0 W/m2 OVC
08:55 64.9 °F 64.9 °F 30.02 in Calm     100% 0.00 in 0.0 W/m2 OVC
09:00 64.9 °F 64.9 °F 30.02 in Calm     100% 0.00 in 0.0 W/m2 OVC
09:25 66.0 °F 66.0 °F 30.04 in Calm     100% 0.00 in 0.0 W/m2 CLR
09:40 66.9 °F 66.9 °F 30.05 in Calm     100% 0.00 in 0.0 W/m2 FEW
09:45 66.9 °F 66.9 °F 30.05 in Calm     100% 0.00 in 0.0 W/m2 FEW
09:55 66.9 °F 66.9 °F 30.05 in Calm     100% 0.00 in 0.0 W/m2 FEW
10:00 66.9 °F 66.9 °F 30.05 in Calm     100% 0.00 in 0.0 W/m2 FEW
10:15 69.1 °F 67.9 °F 30.05 in Calm     96% 0.00 in 0.0 W/m2 BKN
10:25 69.1 °F 66.7 °F 30.06 in Calm     92% 0.00 in 0.0 W/m2 BKN
10:30 69.1 °F 66.7 °F 30.06 in Calm     92% 0.00 in 0.0 W/m2 BKN
10:40 71.1 °F 66.7 °F 30.05 in Calm     86% 0.00 in 0.0 W/m2 BKN
10:45 71.1 °F 66.7 °F 30.05 in Calm     86% 0.00 in 0.0 W/m2 BKN
10:55 72.0 °F 66.9 °F 30.05 in Calm     84% 0.00 in 0.0 W/m2 BKN
11:00 72.0 °F 66.9 °F 30.05 in Calm     84% 0.00 in 0.0 W/m2 BKN
11:10 72.0 °F 66.9 °F 30.05 in Calm     84% 0.00 in 0.0 W/m2 BKN
11:15 72.0 °F 66.9 °F 30.05 in Calm     84% 0.00 in 0.0 W/m2 BKN
11:40 73.0 °F 66.9 °F 30.05 in Calm     81% 0.00 in 0.0 W/m2 BKN
11:45 73.0 °F 66.9 °F 30.05 in Calm     81% 0.00 in 0.0 W/m2 BKN
11:55 73.0 °F 66.9 °F 30.05 in Calm     81% 0.00 in 0.0 W/m2 BKN
12:00 73.0 °F 66.9 °F 30.05 in Calm     81% 0.00 in 0.0 W/m2 BKN
12:10 73.0 °F 66.9 °F 30.05 in Calm     81% 0.00 in 0.0 W/m2 BKN
12:15 73.0 °F 66.9 °F 30.05 in Calm     81% 0.00 in 0.0 W/m2 BKN
12:25 73.0 °F 66.9 °F 30.05 in Calm     81% 0.00 in 0.0 W/m2 BKN
12:30 73.0 °F 66.9 °F 30.05 in Calm     81% 0.00 in 0.0 W/m2 BKN
12:40 73.0 °F 66.9 °F 30.05 in Calm     81% 0.00 in 0.0 W/m2 BKN
12:45 73.0 °F 66.9 °F 30.05 in Calm     81% 0.00 in 0.0 W/m2 BKN
12:55 75.9 °F 66.6 °F 30.02 in Calm     73% 0.00 in 0.0 W/m2 BKN
13:10 75.9 °F 66.6 °F 30.01 in Calm     73% 0.00 in 0.0 W/m2 BKN
13:25 75.9 °F 66.6 °F 30.01 in Calm     73% 0.00 in 0.0 W/m2 BKN
13:40 75.9 °F 66.6 °F 30.01 in Calm     73% 0.00 in 0.0 W/m2 BKN
13:45 75.9 °F 66.6 °F 30.01 in Calm     73% 0.00 in 0.0 W/m2 BKN
13:55 75.9 °F 66.6 °F 30.01 in Calm     73% 0.00 in 0.0 W/m2 BKN
14:00 75.9 °F 66.6 °F 30.01 in Calm     73% 0.00 in 0.0 W/m2 BKN
14:15 80.1 °F 64.9 °F 29.98 in Calm     60% 0.00 in 0.0 W/m2 FEW
14:25 80.1 °F 64.9 °F 29.98 in Calm     60% 0.00 in 0.0 W/m2 FEW
14:30 80.1 °F 64.9 °F 29.98 in Calm     60% 0.00 in 0.0 W/m2 FEW
14:40 80.1 °F 64.9 °F 29.98 in Calm     60% 0.00 in 0.0 W/m2 FEW
14:45 80.1 °F 64.9 °F 29.98 in Calm     60% 0.00 in 0.0 W/m2 FEW
14:55 80.1 °F 64.9 °F 29.98 in Calm     60% 0.00 in 0.0 W/m2 FEW
15:00 80.1 °F 64.9 °F 29.98 in Calm     60% 0.00 in 0.0 W/m2 FEW
15:10 81.0 °F 62.7 °F 29.97 in Calm     54% 0.00 in 0.0 W/m2 BKN
15:15 81.0 °F 62.7 °F 29.97 in Calm     54% 0.00 in 0.0 W/m2 BKN
15:25 81.0 °F 62.7 °F 29.97 in Calm     54% 0.00 in 0.0 W/m2 BKN
15:30 81.0 °F 62.7 °F 29.97 in Calm     54% 0.00 in 0.0 W/m2 BKN
15:40 81.0 °F 62.7 °F 29.97 in Calm     54% 0.00 in 0.0 W/m2 BKN
15:45 81.0 °F 62.7 °F 29.97 in Calm     54% 0.00 in 0.0 W/m2 BKN
15:55 81.0 °F 62.7 °F 29.97 in Calm     54% 0.00 in 0.0 W/m2 BKN
16:00 81.0 °F 62.7 °F 29.97 in Calm     54% 0.00 in 0.0 W/m2 BKN
16:10 81.0 °F 62.7 °F 29.97 in Calm     54% 0.00 in 0.0 W/m2 CLR
16:15 81.0 °F 62.7 °F 29.97 in Calm     54% 0.00 in 0.0 W/m2 CLR
16:25 81.0 °F 62.7 °F 29.97 in Calm     54% 0.00 in 0.0 W/m2 CLR
16:30 81.0 °F 62.7 °F 29.97 in Calm     54% 0.00 in 0.0 W/m2 CLR
16:40 81.0 °F 62.7 °F 29.97 in Calm     54% 0.00 in 0.0 W/m2 CLR
16:45 81.0 °F 62.7 °F 29.97 in Calm     54% 0.00 in 0.0 W/m2 CLR
16:55 81.0 °F 62.7 °F 29.97 in Calm     54% 0.00 in 0.0 W/m2 CLR
17:00 81.0 °F 62.7 °F 29.97 in Calm     54% 0.00 in 0.0 W/m2 CLR
17:10 80.1 °F 61.9 °F 29.97 in Calm     54% 0.00 in 0.0 W/m2 SCT
17:15 80.1 °F 61.9 °F 29.97 in Calm     54% 0.00 in 0.0 W/m2 SCT
17:25 80.1 °F 61.9 °F 29.97 in Calm     54% 0.00 in 0.0 W/m2 SCT
17:30 80.1 °F 61.9 °F 29.97 in Calm     54% 0.00 in 0.0 W/m2 SCT
17:40 80.1 °F 61.9 °F 29.97 in Calm     54% 0.00 in 0.0 W/m2 SCT
17:45 80.1 °F 61.9 °F 29.97 in Calm     54% 0.00 in 0.0 W/m2 SCT
17:55 80.1 °F 61.9 °F 29.97 in Calm     54% 0.00 in 0.0 W/m2 SCT
18:00 80.1 °F 61.9 °F 29.97 in Calm     54% 0.00 in 0.0 W/m2 SCT
18:10 75.9 °F 62.0 °F 29.98 in Calm     62% 0.00 in 0.0 W/m2 FEW
18:15 75.9 °F 62.0 °F 29.98 in Calm     62% 0.00 in 0.0 W/m2 FEW
18:25 75.9 °F 62.0 °F 29.98 in Calm     62% 0.00 in 0.0 W/m2 FEW
18:30 75.9 °F 62.0 °F 29.98 in Calm     62% 0.00 in 0.0 W/m2 FEW
18:40 75.9 °F 62.0 °F 29.98 in Calm     62% 0.00 in 0.0 W/m2 FEW
18:45 75.9 °F 62.0 °F 29.98 in Calm     62% 0.00 in 0.0 W/m2 FEW
18:50 75.9 °F 62.0 °F 29.98 in Calm     62% 0.00 in 0.0 W/m2 FEW
19:00 75.9 °F 62.0 °F 29.98 in Calm     62% 0.00 in 0.0 W/m2 FEW
19:15 72.0 °F 65.8 °F 29.99 in Calm     81% 0.00 in 0.0 W/m2 CLR
19:25 72.0 °F 65.8 °F 29.99 in Calm     81% 0.00 in 0.0 W/m2 CLR
19:40 72.0 °F 65.8 °F 29.99 in Calm     81% 0.00 in 0.0 W/m2 CLR
19:45 72.0 °F 65.8 °F 29.99 in Calm     81% 0.00 in 0.0 W/m2 CLR
19:50 72.0 °F 65.8 °F 29.99 in Calm     81% 0.00 in 0.0 W/m2 CLR
20:00 72.0 °F 65.8 °F 29.99 in Calm     81% 0.00 in 0.0 W/m2 CLR
20:15 70.0 °F 66.9 °F 30.00 in Calm     90% 0.00 in 0.0 W/m2 CLR
20:25 70.0 °F 66.9 °F 30.00 in Calm     90% 0.00 in 0.0 W/m2 CLR
20:30 70.0 °F 66.9 °F 30.00 in Calm     90% 0.00 in 0.0 W/m2 CLR
20:40 70.0 °F 66.9 °F 30.00 in Calm     90% 0.00 in 0.0 W/m2 CLR
20:45 70.0 °F 66.9 °F 30.00 in Calm     90% 0.00 in 0.0 W/m2 CLR
20:55 70.0 °F 66.9 °F 30.00 in Calm     90% 0.00 in 0.0 W/m2 CLR
21:00 70.0 °F 66.9 °F 30.00 in Calm     90% 0.00 in 0.0 W/m2 CLR
21:10 68.0 °F 66.8 °F 30.01 in Calm     96% 0.00 in 0.0 W/m2 CLR
21:15 68.0 °F 66.8 °F 30.01 in Calm     96% 0.00 in 0.0 W/m2 CLR
21:25 68.0 °F 66.8 °F 30.01 in Calm     96% 0.00 in 0.0 W/m2 CLR
21:40 68.0 °F 66.8 °F 30.01 in Calm     96% 0.00 in 0.0 W/m2 CLR
21:45 68.0 °F 66.8 °F 30.01 in Calm     96% 0.00 in 0.0 W/m2 CLR
21:55 68.0 °F 66.8 °F 30.01 in Calm     96% 0.00 in 0.0 W/m2 CLR
22:00 68.0 °F 66.8 °F 30.01 in Calm     96% 0.00 in 0.0 W/m2 CLR
22:10 66.9 °F 65.7 °F 30.02 in Calm     96% 0.00 in 0.0 W/m2 CLR
22:40 66.9 °F 65.7 °F 30.02 in Calm     96% 0.00 in 0.0 W/m2 CLR
22:45 66.9 °F 65.7 °F 30.02 in Calm     96% 0.00 in 0.0 W/m2 CLR
22:55 66.9 °F 65.7 °F 30.02 in Calm     96% 0.00 in 0.0 W/m2 CLR
23:00 66.9 °F 65.7 °F 30.02 in Calm     96% 0.00 in 0.0 W/m2 CLR
23:10 64.9 °F 64.9 °F 30.02 in Calm     100% 0.00 in 0.0 W/m2 CLR
23:15 64.9 °F 64.9 °F 30.02 in Calm     100% 0.00 in 0.0 W/m2 CLR
23:20 64.9 °F 64.9 °F 30.02 in Calm     100% 0.00 in 0.0 W/m2 CLR
23:30 64.9 °F 64.9 °F 30.02 in Calm     100% 0.00 in 0.0 W/m2 CLR
23:40 64.9 °F 64.9 °F 30.02 in Calm     100% 0.00 in 0.0 W/m2 CLR
23:45 64.9 °F 64.9 °F 30.02 in Calm     100% 0.00 in 0.0 W/m2 CLR
Lake Mary, FL, USA
Compliments of Weather Underground - 1.5 mb